Terminal Aerodrome Forecast
Issued by NWS Wichita, KS

Home | Current Version | Previous Version | Text Only | Print | Product List | Glossary Off
Versions: 1 2 3 4 5 6 7 8 9 10 11 12 13 14 15 16 17

000
FTUS43 KICT 161940 AAA
TAFICT
TAF AMD
KICT 161940Z 1620/1718 19012KT P6SM SCT020 BKN035
      TEMPO 1620/1621 VRB15G30KT 5SM TSRA BKN018CB
     FM162300 32012KT P6SM BKN070
     FM170200 32006KT P6SM BKN200=

USA.gov is the U.S. government's official web portal to all federal, state and local government web resources and services.